createdAt,value
2018-02-04T00:01:32.540Z,25.00
2018-02-04T00:03:59.148Z,25.35
2018-02-04T00:06:25.777Z,27.65
2018-02-04T00:08:52.395Z,30.25
2018-02-04T00:11:19.100Z,27.75
2018-02-04T00:13:45.716Z,26.35
2018-02-04T00:16:12.341Z,24.12
2018-02-04T00:18:38.959Z,23.45
2018-02-04T00:21:05.658Z,27.15
2018-02-04T00:23:32.338Z,23.45
2018-02-04T00:25:58.953Z,24.37
2018-02-04T00:28:25.586Z,23.90
2018-02-04T00:30:52.217Z,23.15
2018-02-04T00:33:18.825Z,21.73
2018-02-04T00:35:45.490Z,22.23
2018-02-04T00:38:12.105Z,20.73
2018-02-04T00:40:38.738Z,23.95
2018-02-04T00:43:05.359Z,24.30
2018-02-04T00:45:31.978Z,21.95
2018-02-04T00:47:58.601Z,20.55
2018-02-04T00:50:25.214Z,21.35
2018-02-04T00:52:51.866Z,20.95
2018-02-04T00:55:18.545Z,19.42
2018-02-04T00:57:45.165Z,20.02
2018-02-04T01:00:11.777Z,21.55
2018-02-04T01:02:38.421Z,19.62
2018-02-04T01:05:05.033Z,19.65
2018-02-04T01:07:31.740Z,21.10
2018-02-04T01:09:58.441Z,21.98
2018-02-04T01:12:25.069Z,20.90
2018-02-04T01:14:51.696Z,21.48
2018-02-04T01:17:18.326Z,20.10
2018-02-04T01:19:44.937Z,20.77
2018-02-04T01:22:11.638Z,20.88
2018-02-04T01:24:38.258Z,21.52
2018-02-04T01:27:04.881Z,21.90
2018-02-04T01:29:31.555Z,21.87
2018-02-04T01:31:58.169Z,23.52
2018-02-04T01:34:24.797Z,22.37
2018-02-04T01:36:51.414Z,22.98
2018-02-04T01:39:18.152Z,22.73
2018-02-04T01:41:44.857Z,25.05
2018-02-04T01:44:11.508Z,22.02
2018-02-04T01:46:38.162Z,23.60
2018-02-04T01:49:04.917Z,22.30
2018-02-04T01:51:31.554Z,23.40
2018-02-04T01:53:58.201Z,22.08
2018-02-04T01:56:24.836Z,28.55
2018-02-04T01:58:51.494Z,26.60
2018-02-04T02:01:18.195Z,26.42
2018-02-04T02:03:44.828Z,24.12
2018-02-04T02:06:11.578Z,22.52
2018-02-04T02:08:38.213Z,22.37
2018-02-04T02:11:04.849Z,24.33
2018-02-04T02:13:31.496Z,20.67
2018-02-04T02:15:58.126Z,23.60
2018-02-04T02:18:24.761Z,27.90
2018-02-04T02:20:51.414Z,22.48
2018-02-04T02:23:18.053Z,22.30
2018-02-04T02:25:44.690Z,22.62
2018-02-04T02:28:11.329Z,23.00
2018-02-04T02:30:37.966Z,23.17
2018-02-04T02:33:04.723Z,22.50
2018-02-04T02:35:31.436Z,23.10
2018-02-04T02:37:58.074Z,21.10
2018-02-04T02:40:24.845Z,22.52
2018-02-04T02:42:51.482Z,22.35
2018-02-04T02:45:18.121Z,22.65
2018-02-04T02:47:44.834Z,23.05
2018-02-04T02:50:11.477Z,24.80
2018-02-04T02:52:38.130Z,27.90
2018-02-04T02:55:04.770Z,24.33
2018-02-04T02:57:31.509Z,26.62
2018-02-04T02:59:58.153Z,24.48
2018-02-04T03:02:24.789Z,25.20
2018-02-04T03:04:51.427Z,25.80
2018-02-04T03:07:18.081Z,26.85
2018-02-04T03:09:44.720Z,26.10
2018-02-04T03:12:11.383Z,28.73
2018-02-04T03:14:38.086Z,26.60
2018-02-04T03:17:04.725Z,30.08
2018-02-04T03:19:31.375Z,26.48
2018-02-04T03:21:58.015Z,24.48
2018-02-04T03:24:24.654Z,26.27
2018-02-04T03:26:51.308Z,24.15
2018-02-04T03:29:17.946Z,23.38
2018-02-04T03:31:44.592Z,23.60
2018-02-04T03:34:11.244Z,24.87
2018-02-04T03:36:37.874Z,25.10
2018-02-04T03:39:04.514Z,23.52
2018-02-04T03:41:31.214Z,24.65
2018-02-04T03:43:57.871Z,23.62
2018-02-04T03:46:24.501Z,24.98
2018-02-04T03:48:51.145Z,26.67
2018-02-04T03:51:17.772Z,25.40
2018-02-04T03:53:44.531Z,24.02
2018-02-04T03:56:11.253Z,26.08
2018-02-04T03:58:37.997Z,25.02
2018-02-04T04:01:04.658Z,25.42
2018-02-04T04:03:31.298Z,26.77
2018-02-04T04:05:57.937Z,23.62
2018-02-04T04:08:24.589Z,26.10
2018-02-04T04:10:51.226Z,23.77
2018-02-04T04:13:17.941Z,25.25
2018-02-04T04:15:44.568Z,25.10
2018-02-04T04:18:11.227Z,24.27
2018-02-04T04:20:37.884Z,24.92
2018-02-04T04:23:04.517Z,26.87
2018-02-04T04:25:31.237Z,25.40
2018-02-04T04:27:57.874Z,25.10
2018-02-04T04:30:24.509Z,23.87
2018-02-04T04:32:51.152Z,26.33
2018-02-04T04:35:17.790Z,24.23
2018-02-04T04:37:44.421Z,24.50
2018-02-04T04:40:11.066Z,23.35
2018-02-04T04:49:56.411Z,22.55
2018-02-04T04:52:23.045Z,24.10
2018-02-04T04:54:49.710Z,24.58
2018-02-04T04:57:16.364Z,25.02
2018-02-04T04:59:43.068Z,26.85
2018-02-04T05:02:09.712Z,23.83
2018-02-04T05:04:36.418Z,29.23
2018-02-04T05:07:03.065Z,31.75
2018-02-04T05:09:29.713Z,25.45
2018-02-04T05:11:56.349Z,28.15
2018-02-04T05:14:22.984Z,25.55
2018-02-04T05:16:49.632Z,26.73
2018-02-04T05:19:16.274Z,30.08
2018-02-04T05:21:42.923Z,23.80
2018-02-04T06:25:09.089Z,36.45
2018-02-04T06:27:35.757Z,35.45
2018-02-04T06:30:02.473Z,32.85
2018-02-04T06:32:30.032Z,29.87
2018-02-04T06:34:57.214Z,28.95
2018-02-04T06:37:23.922Z,37.38
2018-02-04T06:39:50.664Z,33.15
2018-02-04T06:42:17.303Z,32.00
2018-02-04T06:44:43.948Z,29.60
2018-02-04T06:47:10.666Z,30.60
2018-02-04T06:49:37.318Z,30.15
2018-02-04T06:52:03.960Z,33.30
2018-02-04T06:54:30.593Z,35.33
2018-02-04T06:56:57.239Z,37.67
2018-02-04T06:59:23.869Z,27.20
2018-02-04T07:01:50.496Z,28.62
2018-02-04T07:04:17.149Z,27.67
2018-02-04T07:06:43.792Z,31.65
2018-02-04T07:09:10.437Z,31.30
2018-02-04T07:11:37.085Z,31.10
2018-02-04T07:14:03.721Z,34.60
2018-02-04T07:16:30.363Z,28.95
2018-02-04T07:18:57.017Z,32.28
2018-02-04T07:21:23.658Z,30.90
2018-02-04T07:23:50.359Z,33.03
2018-02-04T07:26:17.014Z,32.65
2018-02-04T07:28:43.738Z,30.77
2018-02-04T07:31:10.368Z,32.58
2018-02-04T07:33:37.136Z,31.98
2018-02-04T07:36:03.866Z,32.50
2018-02-04T07:38:30.496Z,27.33
2018-02-04T07:40:57.259Z,27.05
2018-02-04T07:43:23.893Z,28.35
2018-02-04T07:45:50.524Z,26.30
2018-02-04T07:48:17.174Z,28.90
2018-02-04T07:50:43.902Z,28.92
2018-02-04T07:53:10.532Z,31.23
2018-02-04T07:55:37.273Z,31.10
2018-02-04T07:58:03.905Z,24.25
2018-02-04T08:00:30.559Z,33.85
2018-02-04T08:02:57.189Z,32.50
2018-02-04T08:05:23.822Z,28.92
2018-02-04T08:07:50.594Z,37.47
2018-02-04T08:10:17.229Z,29.83
2018-02-04T08:12:43.870Z,32.05
2018-02-04T08:15:11.228Z,33.90
2018-02-04T08:17:37.872Z,34.30
2018-02-04T08:20:04.586Z,26.55
2018-02-04T08:22:31.232Z,33.58
2018-02-04T08:24:57.866Z,34.83
2018-02-04T08:27:24.613Z,35.00
2018-02-04T08:29:51.349Z,32.15
2018-02-04T08:32:18.106Z,34.90
2018-02-04T08:34:44.833Z,35.78
2018-02-04T08:37:11.487Z,36.97
2018-02-04T08:39:38.129Z,36.10
2018-02-04T08:42:04.848Z,34.60
2018-02-04T08:44:31.588Z,35.45
2018-02-04T08:46:58.237Z,41.00
2018-02-04T08:49:24.894Z,36.75
2018-02-04T08:51:51.527Z,42.00
2018-02-04T08:54:18.166Z,41.28
2018-02-04T08:56:44.817Z,41.33
2018-02-04T08:59:11.447Z,39.10
2018-02-04T09:01:38.208Z,41.03
2018-02-04T09:04:04.922Z,42.13
2018-02-04T09:06:31.558Z,41.50
2018-02-04T09:08:58.210Z,43.50
2018-02-04T09:11:24.841Z,46.80
2018-02-04T09:13:51.534Z,43.20
2018-02-04T09:16:18.332Z,40.72
2018-02-04T09:18:44.993Z,36.80
2018-02-04T09:21:11.852Z,43.00
2018-02-04T09:23:38.968Z,46.37
2018-02-04T09:26:06.015Z,39.38
2018-02-04T09:28:32.860Z,39.65
2018-02-04T09:30:59.804Z,48.78
2018-02-04T09:33:26.508Z,52.25
2018-02-04T09:35:53.285Z,44.72
2018-02-04T09:38:20.014Z,41.22
2018-02-04T09:40:46.874Z,37.80
2018-02-04T09:43:13.654Z,38.95
2018-02-04T09:45:40.305Z,41.15
2018-02-04T09:48:10.607Z,35.53
2018-02-04T09:50:38.140Z,32.55
2018-02-04T09:53:07.134Z,39.60
2018-02-04T10:00:45.484Z,36.78
2018-02-04T10:03:14.248Z,51.95
2018-02-04T10:05:41.594Z,34.00
2018-02-04T10:08:08.355Z,35.17
2018-02-04T10:10:37.002Z,44.45
2018-02-04T10:13:03.753Z,45.10
2018-02-04T10:15:30.420Z,34.88
2018-02-04T10:17:57.076Z,37.33
2018-02-04T10:20:23.820Z,44.15
2018-02-04T10:22:50.477Z,33.75
2018-02-04T10:25:17.124Z,42.83
2018-02-04T10:27:44.715Z,38.72
2018-02-04T10:30:11.351Z,44.90
2018-02-04T10:32:39.678Z,34.47
2018-02-04T10:35:06.401Z,35.70
2018-02-04T10:37:33.034Z,36.53
2018-02-04T10:39:59.677Z,35.85
2018-02-04T10:42:26.308Z,32.55
2018-02-04T10:44:53.062Z,43.65
2018-02-04T10:47:19.700Z,35.75
2018-02-04T10:49:46.345Z,36.83
2018-02-04T10:52:14.020Z,33.15
2018-02-04T10:54:40.655Z,38.78
2018-02-04T10:57:07.291Z,35.03
2018-02-04T10:59:33.948Z,40.40
2018-02-04T11:02:00.582Z,33.22
2018-02-04T11:04:27.305Z,33.50
2018-02-04T11:06:54.042Z,41.13
2018-02-04T11:09:20.786Z,36.78
2018-02-04T11:11:47.443Z,37.78
2018-02-04T11:14:14.088Z,39.33
2018-02-04T11:16:40.806Z,26.40
2018-02-04T11:19:07.432Z,33.35
2018-02-04T11:21:34.086Z,34.80
2018-02-04T11:24:00.722Z,30.40
2018-02-04T11:26:27.376Z,36.53
2018-02-04T11:28:54.101Z,32.20
2018-02-04T11:31:20.745Z,34.10
2018-02-04T11:33:47.385Z,34.67
2018-02-04T11:36:14.040Z,27.65
2018-02-04T11:38:40.762Z,31.48
2018-02-04T11:41:07.416Z,30.73
2018-02-04T11:43:34.121Z,29.40
2018-02-04T11:46:00.762Z,29.15
2018-02-04T11:48:27.400Z,26.15
2018-02-04T11:50:54.058Z,27.37
2018-02-04T11:53:20.693Z,32.72
2018-02-04T11:55:47.320Z,30.85
2018-02-04T11:58:13.996Z,25.92
2018-02-04T12:00:40.629Z,28.05
2018-02-04T12:03:07.371Z,28.38
2018-02-04T12:05:34.025Z,28.87
2018-02-04T12:08:00.727Z,27.48
2018-02-04T12:10:27.356Z,34.97
2018-02-04T12:12:54.010Z,31.00
2018-02-04T12:15:20.641Z,25.50
2018-02-04T12:17:47.387Z,25.33
2018-02-04T12:20:14.128Z,30.40
2018-02-04T12:22:40.770Z,23.15
2018-02-04T12:25:07.408Z,26.58
2018-02-04T12:27:34.061Z,28.38
2018-02-04T12:30:00.703Z,28.38
2018-02-04T12:32:27.451Z,30.73
2018-02-04T12:34:54.093Z,43.42
2018-02-04T12:37:20.813Z,40.53
2018-02-04T12:39:47.468Z,48.78
2018-02-04T12:42:14.116Z,48.17
2018-02-04T12:44:40.790Z,35.42
2018-02-04T12:47:07.473Z,28.12
2018-02-04T12:49:34.113Z,26.60
2018-02-04T12:52:00.765Z,23.77
2018-02-04T12:54:27.630Z,27.05
2018-02-04T12:56:54.273Z,19.12
2018-02-04T12:59:20.992Z,28.67
2018-02-04T13:01:47.642Z,22.58
2018-02-04T13:04:14.280Z,25.17
2018-02-04T13:06:40.933Z,29.17
2018-02-04T13:09:07.577Z,28.55
2018-02-04T13:11:34.290Z,31.35
2018-02-04T13:14:00.949Z,22.30
2018-02-04T13:16:27.589Z,24.73
2018-02-04T13:18:54.294Z,25.27
2018-02-04T13:21:20.960Z,21.42
2018-02-04T13:23:47.682Z,27.10
2018-02-04T13:26:14.315Z,21.65
2018-02-04T13:28:40.960Z,26.58
2018-02-04T13:31:07.598Z,21.37
2018-02-04T13:33:34.250Z,23.08
2018-02-04T13:36:00.886Z,32.70
2018-02-04T13:38:27.619Z,28.20
2018-02-04T13:40:54.261Z,28.83
2018-02-04T13:43:20.897Z,31.67
2018-02-04T13:45:47.624Z,28.75
2018-02-04T13:48:14.273Z,28.38
2018-02-04T13:50:40.924Z,46.65
2018-02-04T13:53:07.649Z,31.23
2018-02-04T13:55:34.290Z,36.72
2018-02-04T13:58:00.943Z,32.85
2018-02-04T14:00:27.578Z,40.50
2018-02-04T14:02:54.219Z,34.85
2018-02-04T14:05:20.865Z,30.23
2018-02-04T14:07:47.502Z,32.17
2018-02-04T14:10:14.128Z,32.03
2018-02-04T14:12:40.778Z,32.80
2018-02-04T14:15:07.404Z,35.50
2018-02-04T14:17:34.059Z,40.38
2018-02-04T14:20:00.713Z,32.85
2018-02-04T14:22:27.397Z,35.40
2018-02-04T14:24:54.055Z,31.30
2018-02-04T14:27:20.803Z,33.22
2018-02-04T14:29:47.535Z,28.52
2018-02-04T14:32:14.180Z,32.35
2018-02-04T14:34:40.813Z,30.10
2018-02-04T14:37:07.450Z,34.22
2018-02-04T14:39:34.220Z,32.25
2018-02-04T14:42:00.858Z,30.83
2018-02-04T14:44:27.600Z,34.38
2018-02-04T14:46:54.317Z,29.27
2018-02-04T14:49:21.064Z,33.38
2018-02-04T14:51:48.158Z,34.03
2018-02-04T14:54:14.920Z,33.70
2018-02-04T14:56:41.615Z,34.85
2018-02-04T14:59:08.246Z,33.42
2018-02-04T15:01:34.897Z,33.35
2018-02-04T15:04:01.618Z,33.20
2018-02-04T15:06:28.253Z,36.25
2018-02-04T15:08:55.011Z,57.85
2018-02-04T15:11:21.640Z,45.60
2018-02-04T15:13:48.386Z,36.03
2018-02-04T15:16:15.038Z,38.95
2018-02-04T15:18:41.673Z,38.63
2018-02-04T15:21:08.398Z,37.30
2018-02-04T15:23:35.025Z,38.13
2018-02-04T15:26:01.695Z,43.63
2018-02-04T15:28:28.418Z,44.45
2018-02-04T15:30:55.061Z,38.53
2018-02-04T15:33:21.697Z,43.97
2018-02-04T15:35:48.350Z,40.33
2018-02-04T15:38:14.977Z,34.50
2018-02-04T15:40:41.618Z,36.83
2018-02-04T15:43:08.349Z,38.70
2018-02-04T15:45:34.980Z,36.67
2018-02-04T15:48:01.753Z,37.65
2018-02-04T15:50:28.405Z,26.62
2018-02-04T15:52:55.038Z,38.30
2018-02-04T15:55:21.771Z,31.33
2018-02-04T15:57:48.406Z,30.42
2018-02-04T16:00:15.042Z,36.20
2018-02-04T16:02:41.772Z,41.33
2018-02-04T16:05:08.430Z,34.65
2018-02-04T16:07:35.153Z,32.15
2018-02-04T16:10:01.797Z,36.45
2018-02-04T16:12:28.542Z,40.45
2018-02-04T16:14:55.177Z,44.17
2018-02-04T16:17:21.918Z,36.40
2018-02-04T16:19:48.564Z,35.20
2018-02-04T16:22:15.212Z,43.10
2018-02-04T16:24:41.853Z,46.75
2018-02-04T16:27:08.490Z,33.42
2018-02-04T16:29:35.130Z,32.38
2018-02-04T16:32:01.857Z,33.00
2018-02-04T16:34:28.496Z,30.92
2018-02-04T16:36:55.124Z,30.55
2018-02-04T16:39:21.787Z,34.90
2018-02-04T16:41:48.418Z,31.27
2018-02-04T16:44:15.056Z,31.02
2018-02-04T16:46:41.706Z,28.60
2018-02-04T16:49:08.429Z,29.95
2018-02-04T16:51:35.056Z,32.97
2018-02-04T16:54:01.696Z,31.20
2018-02-04T16:56:30.274Z,32.00
2018-02-04T16:58:56.918Z,38.10
2018-02-04T17:01:23.558Z,26.52
2018-02-04T17:03:50.201Z,24.65
2018-02-04T17:06:16.837Z,28.67
2018-02-04T17:08:43.585Z,24.95
2018-02-04T17:11:10.217Z,25.60
2018-02-04T17:13:36.860Z,21.95
2018-02-04T17:16:03.509Z,23.48
2018-02-04T17:18:30.249Z,25.27
2018-02-04T17:20:56.880Z,24.70
2018-02-04T17:23:23.525Z,21.65
2018-02-04T17:25:50.286Z,20.60
2018-02-04T17:28:16.921Z,22.48
2018-02-04T17:30:43.658Z,26.58
2018-02-04T17:33:10.298Z,19.60
2018-02-04T17:35:36.928Z,29.23
2018-02-04T17:38:03.669Z,24.58
2018-02-04T17:40:30.322Z,19.70
2018-02-04T17:42:56.952Z,21.85
2018-02-04T17:45:23.605Z,29.00
2018-02-04T17:47:50.237Z,20.15
2018-02-04T17:50:16.864Z,26.70
2018-02-04T17:52:43.544Z,28.87
2018-02-04T17:55:10.184Z,22.48
2018-02-04T17:57:36.814Z,24.45
2018-02-04T18:00:03.542Z,25.25
2018-02-04T18:02:30.181Z,23.45
2018-02-04T18:04:56.814Z,22.40
2018-02-04T18:07:23.540Z,28.85
2018-02-04T18:09:50.281Z,26.50
2018-02-04T18:12:16.929Z,31.05
2018-02-04T18:14:43.614Z,21.62
2018-02-04T18:17:10.249Z,25.55
2018-02-04T18:19:36.902Z,25.50
2018-02-04T18:22:03.537Z,28.10
2018-02-04T18:24:30.185Z,20.98
2018-02-04T18:26:56.818Z,19.52
2018-02-04T18:29:23.519Z,18.40
2018-02-04T18:31:50.241Z,24.60
2018-02-04T18:34:16.882Z,18.00
2018-02-04T18:36:43.620Z,24.42
2018-02-04T18:39:10.267Z,20.62
2018-02-04T18:41:36.999Z,26.92
2018-02-04T18:44:03.637Z,31.12
2018-02-04T18:46:30.338Z,27.05
2018-02-04T18:48:56.971Z,18.30
2018-02-04T18:51:23.605Z,19.48
2018-02-04T18:53:50.253Z,17.87
2018-02-04T18:56:16.958Z,17.87
2018-02-04T18:58:43.588Z,18.05
2018-02-04T19:01:10.317Z,20.88
2018-02-04T19:03:37.061Z,19.20
2018-02-04T19:06:03.819Z,25.80
2018-02-04T19:08:30.546Z,18.35
2018-02-04T19:10:57.186Z,19.62
2018-02-04T19:13:23.822Z,20.65
2018-02-04T19:15:50.471Z,22.35
2018-02-04T19:18:17.096Z,18.50
2018-02-04T19:20:43.729Z,25.88
2018-02-04T19:23:10.416Z,19.20
2018-02-04T19:25:37.078Z,18.92
2018-02-04T19:28:03.714Z,18.27
2018-02-04T19:30:30.416Z,20.42
2018-02-04T19:32:57.141Z,20.70
2018-02-04T19:35:23.777Z,21.75
2018-02-04T19:37:50.425Z,20.55
2018-02-04T19:40:17.161Z,19.27
2018-02-04T19:42:43.805Z,19.55
2018-02-04T19:45:10.451Z,18.75
2018-02-04T19:47:37.076Z,18.33
2018-02-04T19:50:03.711Z,19.30
2018-02-04T19:52:30.372Z,21.83
2018-02-04T19:54:57.115Z,25.27
2018-02-04T19:57:23.745Z,29.63
2018-02-04T19:59:50.495Z,29.55
2018-02-04T20:02:17.217Z,24.23
2018-02-04T20:04:43.875Z,25.77
2018-02-04T20:07:10.500Z,22.83
2018-02-04T20:09:37.138Z,19.08
2018-02-04T20:12:03.792Z,18.58
2018-02-04T20:14:30.426Z,19.02
2018-02-04T20:16:57.177Z,19.12
2018-02-04T20:19:23.824Z,19.52
2018-02-04T20:21:50.534Z,20.50
2018-02-04T20:24:17.282Z,21.30
2018-02-04T20:26:44.038Z,18.45
2018-02-04T20:29:10.673Z,20.17
2018-02-04T20:31:37.316Z,17.55
2018-02-04T20:34:09.874Z,19.10
2018-02-04T20:36:36.618Z,18.17
2018-02-04T20:39:03.269Z,17.98
2018-02-04T20:41:29.912Z,17.70
2018-02-04T20:43:56.655Z,20.02
2018-02-04T20:46:23.294Z,21.35
2018-02-04T20:48:50.036Z,21.52
2018-02-04T20:51:16.676Z,20.02
2018-02-04T20:53:43.313Z,22.33
2018-02-04T20:56:09.970Z,25.17
2018-02-04T20:58:36.600Z,21.80
2018-02-04T21:01:03.258Z,22.33
2018-02-04T21:03:29.907Z,22.35
2018-02-04T21:05:56.596Z,22.48
2018-02-04T21:08:23.332Z,22.58
2018-02-04T21:10:49.966Z,22.00
2018-02-04T21:13:16.603Z,20.40
2018-02-04T21:15:43.349Z,18.60
2018-02-04T21:18:10.011Z,21.12
2018-02-04T21:20:36.741Z,19.42
2018-02-04T21:23:03.394Z,17.33
2018-02-04T21:25:30.037Z,19.40
2018-02-04T21:27:56.757Z,16.85
2018-02-04T21:30:23.493Z,19.15
2018-02-04T21:32:50.237Z,21.67
2018-02-04T21:35:16.872Z,18.65
2018-02-04T21:37:43.620Z,19.83
2018-02-04T21:40:10.381Z,22.45
2018-02-04T21:42:37.039Z,18.08
2018-02-04T21:45:03.678Z,21.05
2018-02-04T21:47:30.321Z,19.50
2018-02-04T21:49:56.969Z,19.60
2018-02-04T21:52:23.676Z,19.15
2018-02-04T21:54:50.324Z,22.00
2018-02-04T21:57:17.048Z,21.12
2018-02-04T21:59:43.786Z,19.80
2018-02-04T22:02:10.439Z,20.15
2018-02-04T22:04:37.152Z,23.42
2018-02-04T22:07:03.801Z,20.77
2018-02-04T22:09:30.438Z,22.75
2018-02-04T22:11:57.065Z,21.23
2018-02-04T22:14:24.749Z,21.05
2018-02-04T22:16:51.389Z,23.45
2018-02-04T22:19:18.017Z,21.73
2018-02-04T22:21:44.665Z,24.10
2018-02-04T22:24:11.300Z,22.42
2018-02-04T22:26:38.043Z,23.00
2018-02-04T22:29:04.695Z,22.77
2018-02-04T22:31:31.330Z,25.12
2018-02-04T22:33:58.057Z,23.48
2018-02-04T22:36:24.696Z,19.85
2018-02-04T22:38:51.320Z,24.12
2018-02-04T22:41:17.970Z,21.35
2018-02-04T22:43:44.600Z,20.88
2018-02-04T22:46:11.233Z,22.08
2018-02-04T22:48:37.883Z,21.35
2018-02-04T22:51:04.516Z,19.98
2018-02-04T22:53:31.145Z,21.00
2018-02-04T22:55:57.788Z,19.42
2018-02-04T22:58:24.424Z,21.62
2018-02-04T23:00:51.209Z,22.30
2018-02-04T23:03:17.838Z,20.65
2018-02-04T23:05:44.473Z,20.10
2018-02-04T23:08:11.125Z,18.60
2018-02-04T23:10:37.927Z,21.77
2018-02-04T23:13:04.593Z,19.27
2018-02-04T23:15:31.239Z,21.87
2018-02-04T23:17:57.869Z,21.23
2018-02-04T23:20:24.559Z,18.12
2018-02-04T23:22:51.268Z,18.67
2018-02-04T23:25:17.906Z,19.92
2018-02-04T23:27:44.548Z,22.35
2018-02-04T23:30:11.265Z,20.20
2018-02-04T23:32:37.896Z,20.30
2018-02-04T23:35:04.669Z,23.75
2018-02-04T23:37:31.302Z,22.35
2018-02-04T23:39:57.932Z,20.75
2018-02-04T23:42:24.572Z,24.37
2018-02-04T23:44:51.224Z,21.15
2018-02-04T23:47:17.860Z,21.37
2018-02-04T23:49:44.513Z,19.77
2018-02-04T23:52:11.224Z,19.25
2018-02-04T23:54:37.857Z,18.62
2018-02-04T23:57:04.505Z,23.27
2018-02-04T23:59:31.136Z,18.50
